KAUG/AUG METAR and TAF weather

Enter ICAO airport designator
Station Type Date Time Source
KAUG METAR 2020/01/21 17:53 UTC NOAA

KAUG 211753Z AUTO 00000KT 10SM CLR M07/M18 A3035 RMK AO2 SLP284 T10721178 11072 21156 58016


Station Type Date Time Source
KAUG Decoded METAR 2020/01/21 17:53 UTC NOAA

AUGUSTA STATE AIRPORT, ME, United States (KAUG) 44-19N 069-48W 109M
Jan 21, 2020 - 12:53 PM EST / 2020.01.21 1753 UTC
Wind: Calm:0
Visibility: 10 mile(s):0
Sky conditions: clear
Temperature: 19.0 F (-7.2 C)
Dew Point: -0.0 F (-17.8 C)
Relative Humidity: 42%
Pressure (altimeter): 30.35 in. Hg (1027 hPa)
Pressure tendency: 0.05 inches (1.6 hPa) lower than three hours ago
ob: KAUG 211753Z AUTO 00000KT 10SM CLR M07/M18 A3035 RMK AO2 SLP284 T10721178 11072 21156 58016
cycle: 18

Station Type Date Time Source
KAUG TAF 2020/01/21 18:36 UTC NOAA

TAF KAUG 211732Z 2118/2218 VRB04KT P6SM SCT100 BKN250

Example: see airport list